sensor_id;sensor_type;location;lat;lon;timestamp;temperature;humidity
10903;DHT22;5504;47.312;11.060;2022-08-19T00:00:42;17.90;95.70
10903;DHT22;5504;47.312;11.060;2022-08-19T00:03:08;17.90;95.70
10903;DHT22;5504;47.312;11.060;2022-08-19T00:05:34;17.90;95.80
10903;DHT22;5504;47.312;11.060;2022-08-19T00:08:00;18.00;95.70
10903;DHT22;5504;47.312;11.060;2022-08-19T00:10:25;18.00;95.50
10903;DHT22;5504;47.312;11.060;2022-08-19T00:12:51;18.00;95.40
10903;DHT22;5504;47.312;11.060;2022-08-19T00:15:20;17.90;95.60
10903;DHT22;5504;47.312;11.060;2022-08-19T00:17:46;17.70;95.70
10903;DHT22;5504;47.312;11.060;2022-08-19T00:20:15;17.60;95.80
10903;DHT22;5504;47.312;11.060;2022-08-19T00:22:43;17.60;96.20
10903;DHT22;5504;47.312;11.060;2022-08-19T00:25:10;17.60;96.30
10903;DHT22;5504;47.312;11.060;2022-08-19T00:27:36;17.50;96.10
10903;DHT22;5504;47.312;11.060;2022-08-19T00:30:04;17.50;96.30
10903;DHT22;5504;47.312;11.060;2022-08-19T00:32:30;17.60;96.40
10903;DHT22;5504;47.312;11.060;2022-08-19T00:34:56;17.60;96.20
10903;DHT22;5504;47.312;11.060;2022-08-19T00:37:23;17.50;96.40
10903;DHT22;5504;47.312;11.060;2022-08-19T00:39:49;17.50;96.30
10903;DHT22;5504;47.312;11.060;2022-08-19T00:42:18;17.60;96.30
10903;DHT22;5504;47.312;11.060;2022-08-19T00:44:44;17.60;96.30
10903;DHT22;5504;47.312;11.060;2022-08-19T00:47:10;17.60;96.40
10903;DHT22;5504;47.312;11.060;2022-08-19T00:49:57;17.60;96.40
10903;DHT22;5504;47.312;11.060;2022-08-19T00:52:31;17.60;96.20
10903;DHT22;5504;47.312;11.060;2022-08-19T00:54:58;17.60;96.30
10903;DHT22;5504;47.312;11.060;2022-08-19T00:57:34;17.50;96.40
10903;DHT22;5504;47.312;11.060;2022-08-19T01:00:01;17.60;96.50
10903;DHT22;5504;47.312;11.060;2022-08-19T01:02:28;17.60;96.40
10903;DHT22;5504;47.312;11.060;2022-08-19T01:04:54;17.60;96.10
10903;DHT22;5504;47.312;11.060;2022-08-19T01:07:20;17.60;96.20
10903;DHT22;5504;47.312;11.060;2022-08-19T01:09:46;17.70;96.30
10903;DHT22;5504;47.312;11.060;2022-08-19T01:12:13;17.80;96.40
10903;DHT22;5504;47.312;11.060;2022-08-19T01:14:40;17.90;96.40
10903;DHT22;5504;47.312;11.060;2022-08-19T01:17:08;18.00;96.20
10903;DHT22;5504;47.312;11.060;2022-08-19T01:19:41;18.20;95.80
10903;DHT22;5504;47.312;11.060;2022-08-19T01:22:12;18.00;95.50
10903;DHT22;5504;47.312;11.060;2022-08-19T01:24:40;18.00;95.80
10903;DHT22;5504;47.312;11.060;2022-08-19T01:27:06;18.00;95.60
10903;DHT22;5504;47.312;11.060;2022-08-19T01:29:32;17.90;95.80
10903;DHT22;5504;47.312;11.060;2022-08-19T01:31:59;18.00;96.00
10903;DHT22;5504;47.312;11.060;2022-08-19T01:34:26;17.90;95.70
10903;DHT22;5504;47.312;11.060;2022-08-19T01:36:51;17.80;95.80
10903;DHT22;5504;47.312;11.060;2022-08-19T01:39:20;17.80;95.90
10903;DHT22;5504;47.312;11.060;2022-08-19T01:41:47;17.80;95.90
10903;DHT22;5504;47.312;11.060;2022-08-19T01:44:13;17.80;96.00
10903;DHT22;5504;47.312;11.060;2022-08-19T01:46:41;17.80;96.10
10903;DHT22;5504;47.312;11.060;2022-08-19T01:49:07;17.90;95.90
10903;DHT22;5504;47.312;11.060;2022-08-19T01:51:34;17.90;96.00
10903;DHT22;5504;47.312;11.060;2022-08-19T01:54:00;17.90;96.30
10903;DHT22;5504;47.312;11.060;2022-08-19T01:56:26;18.00;96.10
10903;DHT22;5504;47.312;11.060;2022-08-19T01:58:57;18.00;95.90
10903;DHT22;5504;47.312;11.060;2022-08-19T02:01:23;18.00;95.90
10903;DHT22;5504;47.312;11.060;2022-08-19T02:03:49;18.00;95.80
10903;DHT22;5504;47.312;11.060;2022-08-19T02:06:15;18.10;95.50
10903;DHT22;5504;47.312;11.060;2022-08-19T02:08:42;18.10;95.80
10903;DHT22;5504;47.312;11.060;2022-08-19T02:11:22;18.10;96.10
10903;DHT22;5504;47.312;11.060;2022-08-19T02:13:48;18.00;96.20
10903;DHT22;5504;47.312;11.060;2022-08-19T02:16:16;17.90;96.30
10903;DHT22;5504;47.312;11.060;2022-08-19T02:18:42;17.90;96.40
10903;DHT22;5504;47.312;11.060;2022-08-19T02:21:07;18.00;96.30
10903;DHT22;5504;47.312;11.060;2022-08-19T02:23:33;18.00;96.60
10903;DHT22;5504;47.312;11.060;2022-08-19T02:25:59;18.00;96.50
10903;DHT22;5504;47.312;11.060;2022-08-19T02:28:24;18.00;96.40
10903;DHT22;5504;47.312;11.060;2022-08-19T02:30:50;18.00;96.30
10903;DHT22;5504;47.312;11.060;2022-08-19T02:33:16;18.00;96.50
10903;DHT22;5504;47.312;11.060;2022-08-19T02:35:46;18.00;96.40
10903;DHT22;5504;47.312;11.060;2022-08-19T02:38:13;18.10;96.30
10903;DHT22;5504;47.312;11.060;2022-08-19T02:41:12;18.20;96.30
10903;DHT22;5504;47.312;11.060;2022-08-19T02:43:39;18.20;96.30
10903;DHT22;5504;47.312;11.060;2022-08-19T02:46:23;18.10;96.20
10903;DHT22;5504;47.312;11.060;2022-08-19T02:48:51;18.20;95.80
10903;DHT22;5504;47.312;11.060;2022-08-19T02:51:20;18.20;95.30
10903;DHT22;5504;47.312;11.060;2022-08-19T02:53:46;18.20;95.40
10903;DHT22;5504;47.312;11.060;2022-08-19T02:56:12;18.10;95.80
10903;DHT22;5504;47.312;11.060;2022-08-19T02:58:37;17.90;96.10
10903;DHT22;5504;47.312;11.060;2022-08-19T03:01:03;18.00;96.20
10903;DHT22;5504;47.312;11.060;2022-08-19T03:03:29;18.00;96.10
10903;DHT22;5504;47.312;11.060;2022-08-19T03:06:11;18.10;96.40
10903;DHT22;5504;47.312;11.060;2022-08-19T03:08:40;18.10;96.50
10903;DHT22;5504;47.312;11.060;2022-08-19T03:11:06;18.10;96.40
10903;DHT22;5504;47.312;11.060;2022-08-19T03:13:37;18.10;96.30
10903;DHT22;5504;47.312;11.060;2022-08-19T03:16:04;18.00;96.20
10903;DHT22;5504;47.312;11.060;2022-08-19T03:18:30;17.90;96.30
10903;DHT22;5504;47.312;11.060;2022-08-19T03:20:56;18.10;96.80
10903;DHT22;5504;47.312;11.060;2022-08-19T03:23:23;18.10;96.60
10903;DHT22;5504;47.312;11.060;2022-08-19T03:25:50;18.20;96.50
10903;DHT22;5504;47.312;11.060;2022-08-19T03:28:16;18.20;96.50
10903;DHT22;5504;47.312;11.060;2022-08-19T03:30:57;18.20;96.20
10903;DHT22;5504;47.312;11.060;2022-08-19T03:33:25;18.30;96.50
10903;DHT22;5504;47.312;11.060;2022-08-19T03:36:07;18.30;96.50
10903;DHT22;5504;47.312;11.060;2022-08-19T03:38:39;18.30;96.50
10903;DHT22;5504;47.312;11.060;2022-08-19T03:41:08;18.40;96.40
10903;DHT22;5504;47.312;11.060;2022-08-19T03:43:39;18.40;96.40
10903;DHT22;5504;47.312;11.060;2022-08-19T03:46:16;18.40;96.50
10903;DHT22;5504;47.312;11.060;2022-08-19T03:48:43;18.40;96.30
10903;DHT22;5504;47.312;11.060;2022-08-19T03:51:22;18.40;96.30
10903;DHT22;5504;47.312;11.060;2022-08-19T03:53:50;18.50;96.00
10903;DHT22;5504;47.312;11.060;2022-08-19T03:56:17;18.60;95.80
10903;DHT22;5504;47.312;11.060;2022-08-19T03:58:43;18.50;96.00
10903;DHT22;5504;47.312;11.060;2022-08-19T04:01:11;18.50;96.00
10903;DHT22;5504;47.312;11.060;2022-08-19T04:03:38;18.50;96.20
10903;DHT22;5504;47.312;11.060;2022-08-19T04:06:25;18.50;96.30
10903;DHT22;5504;47.312;11.060;2022-08-19T04:08:52;18.50;95.90
10903;DHT22;5504;47.312;11.060;2022-08-19T04:11:24;18.50;96.10
10903;DHT22;5504;47.312;11.060;2022-08-19T04:13:51;18.50;96.50
10903;DHT22;5504;47.312;11.060;2022-08-19T04:16:27;18.50;96.40
10903;DHT22;5504;47.312;11.060;2022-08-19T04:18:55;18.50;96.30
10903;DHT22;5504;47.312;11.060;2022-08-19T04:21:24;18.50;96.40
10903;DHT22;5504;47.312;11.060;2022-08-19T04:23:49;18.50;96.60
10903;DHT22;5504;47.312;11.060;2022-08-19T04:26:18;18.50;96.80
10903;DHT22;5504;47.312;11.060;2022-08-19T04:28:44;18.50;96.70
10903;DHT22;5504;47.312;11.060;2022-08-19T04:31:16;18.50;96.60
10903;DHT22;5504;47.312;11.060;2022-08-19T04:33:42;18.50;96.50
10903;DHT22;5504;47.312;11.060;2022-08-19T04:36:08;18.50;96.50
10903;DHT22;5504;47.312;11.060;2022-08-19T04:38:40;18.60;96.60
10903;DHT22;5504;47.312;11.060;2022-08-19T04:41:06;18.50;96.70
10903;DHT22;5504;47.312;11.060;2022-08-19T04:43:50;18.60;96.70
10903;DHT22;5504;47.312;11.060;2022-08-19T04:46:16;18.60;96.80
10903;DHT22;5504;47.312;11.060;2022-08-19T04:48:42;18.60;96.90
10903;DHT22;5504;47.312;11.060;2022-08-19T04:51:11;18.60;96.80
10903;DHT22;5504;47.312;11.060;2022-08-19T04:53:40;18.60;97.10
10903;DHT22;5504;47.312;11.060;2022-08-19T04:56:12;18.60;96.70
10903;DHT22;5504;47.312;11.060;2022-08-19T04:58:41;18.60;96.50
10903;DHT22;5504;47.312;11.060;2022-08-19T05:01:09;18.60;96.60
10903;DHT22;5504;47.312;11.060;2022-08-19T05:03:36;18.70;96.70
10903;DHT22;5504;47.312;11.060;2022-08-19T05:06:07;18.60;96.60
10903;DHT22;5504;47.312;11.060;2022-08-19T05:08:35;18.70;96.80
10903;DHT22;5504;47.312;11.060;2022-08-19T05:11:08;18.70;96.70
10903;DHT22;5504;47.312;11.060;2022-08-19T05:13:34;18.70;97.00
10903;DHT22;5504;47.312;11.060;2022-08-19T05:15:59;18.70;97.00
10903;DHT22;5504;47.312;11.060;2022-08-19T05:18:26;18.70;97.00
10903;DHT22;5504;47.312;11.060;2022-08-19T05:21:13;18.70;97.10
10903;DHT22;5504;47.312;11.060;2022-08-19T05:23:57;18.80;97.00
10903;DHT22;5504;47.312;11.060;2022-08-19T05:26:24;19.00;96.50
10903;DHT22;5504;47.312;11.060;2022-08-19T05:28:52;19.00;96.00
10903;DHT22;5504;47.312;11.060;2022-08-19T05:31:18;19.00;96.30
10903;DHT22;5504;47.312;11.060;2022-08-19T05:33:44;19.20;95.80
10903;DHT22;5504;47.312;11.060;2022-08-19T05:36:10;19.20;95.30
10903;DHT22;5504;47.312;11.060;2022-08-19T05:38:36;19.20;95.00
10903;DHT22;5504;47.312;11.060;2022-08-19T05:41:13;19.20;95.20
10903;DHT22;5504;47.312;11.060;2022-08-19T05:43:40;19.20;95.30
10903;DHT22;5504;47.312;11.060;2022-08-19T05:46:07;19.10;95.80
10903;DHT22;5504;47.312;11.060;2022-08-19T05:48:34;19.00;95.50
10903;DHT22;5504;47.312;11.060;2022-08-19T05:51:07;19.00;95.40
10903;DHT22;5504;47.312;11.060;2022-08-19T05:53:34;19.10;95.80
10903;DHT22;5504;47.312;11.060;2022-08-19T05:56:09;19.20;95.90
10903;DHT22;5504;47.312;11.060;2022-08-19T05:58:36;19.20;95.80
10903;DHT22;5504;47.312;11.060;2022-08-19T06:01:13;19.30;96.00
10903;DHT22;5504;47.312;11.060;2022-08-19T06:03:39;19.30;95.50
10903;DHT22;5504;47.312;11.060;2022-08-19T06:06:06;19.40;95.30
10903;DHT22;5504;47.312;11.060;2022-08-19T06:08:34;19.00;95.00
10903;DHT22;5504;47.312;11.060;2022-08-19T06:11:14;19.10;95.00
10903;DHT22;5504;47.312;11.060;2022-08-19T06:13:40;19.00;95.00
10903;DHT22;5504;47.312;11.060;2022-08-19T06:16:06;19.00;95.10
10903;DHT22;5504;47.312;11.060;2022-08-19T06:18:31;18.20;95.90
10903;DHT22;5504;47.312;11.060;2022-08-19T06:20:58;18.30;96.20
10903;DHT22;5504;47.312;11.060;2022-08-19T06:23:24;18.80;96.10
10903;DHT22;5504;47.312;11.060;2022-08-19T06:25:50;18.80;95.90
10903;DHT22;5504;47.312;11.060;2022-08-19T06:28:16;18.50;96.20
10903;DHT22;5504;47.312;11.060;2022-08-19T06:30:42;18.40;96.50
10903;DHT22;5504;47.312;11.060;2022-08-19T06:33:08;18.40;96.70
10903;DHT22;5504;47.312;11.060;2022-08-19T06:35:38;18.40;96.90
10903;DHT22;5504;47.312;11.060;2022-08-19T06:38:04;18.40;96.80
10903;DHT22;5504;47.312;11.060;2022-08-19T06:40:30;18.60;96.70
10903;DHT22;5504;47.312;11.060;2022-08-19T06:42:56;18.70;97.00
10903;DHT22;5504;47.312;11.060;2022-08-19T06:45:24;18.70;96.80
10903;DHT22;5504;47.312;11.060;2022-08-19T06:47:51;18.90;96.70
10903;DHT22;5504;47.312;11.060;2022-08-19T06:50:21;19.00;96.50
10903;DHT22;5504;47.312;11.060;2022-08-19T06:52:47;19.10;96.50
10903;DHT22;5504;47.312;11.060;2022-08-19T06:55:13;19.20;96.80
10903;DHT22;5504;47.312;11.060;2022-08-19T06:57:39;19.30;96.70
10903;DHT22;5504;47.312;11.060;2022-08-19T07:00:05;19.40;96.90
10903;DHT22;5504;47.312;11.060;2022-08-19T07:02:36;19.30;96.00
10903;DHT22;5504;47.312;11.060;2022-08-19T07:05:03;19.40;95.50
10903;DHT22;5504;47.312;11.060;2022-08-19T07:07:28;19.40;95.80
10903;DHT22;5504;47.312;11.060;2022-08-19T07:09:54;19.50;96.30
10903;DHT22;5504;47.312;11.060;2022-08-19T07:12:20;19.60;95.80
10903;DHT22;5504;47.312;11.060;2022-08-19T07:14:46;19.60;95.20
10903;DHT22;5504;47.312;11.060;2022-08-19T07:17:15;19.60;95.70
10903;DHT22;5504;47.312;11.060;2022-08-19T07:19:41;19.60;96.00
10903;DHT22;5504;47.312;11.060;2022-08-19T07:22:08;19.60;96.20
10903;DHT22;5504;47.312;11.060;2022-08-19T07:24:35;19.60;96.20
10903;DHT22;5504;47.312;11.060;2022-08-19T07:27:03;19.60;96.10
10903;DHT22;5504;47.312;11.060;2022-08-19T07:29:32;19.50;96.00
10903;DHT22;5504;47.312;11.060;2022-08-19T07:32:00;19.60;96.40
10903;DHT22;5504;47.312;11.060;2022-08-19T07:34:28;19.60;96.20
10903;DHT22;5504;47.312;11.060;2022-08-19T07:36:55;19.60;96.30
10903;DHT22;5504;47.312;11.060;2022-08-19T07:39:30;19.60;96.00
10903;DHT22;5504;47.312;11.060;2022-08-19T07:41:57;19.70;95.50
10903;DHT22;5504;47.312;11.060;2022-08-19T07:44:23;19.70;95.40
10903;DHT22;5504;47.312;11.060;2022-08-19T07:46:52;19.70;95.40
10903;DHT22;5504;47.312;11.060;2022-08-19T07:49:19;19.60;95.60
10903;DHT22;5504;47.312;11.060;2022-08-19T07:51:51;19.60;95.70
10903;DHT22;5504;47.312;11.060;2022-08-19T07:54:19;19.60;95.80
10903;DHT22;5504;47.312;11.060;2022-08-19T07:56:45;19.50;96.20
10903;DHT22;5504;47.312;11.060;2022-08-19T07:59:11;19.30;96.70
10903;DHT22;5504;47.312;11.060;2022-08-19T08:01:38;18.80;97.40
10903;DHT22;5504;47.312;11.060;2022-08-19T08:04:06;18.80;98.30
10903;DHT22;5504;47.312;11.060;2022-08-19T08:06:52;18.70;98.20
10903;DHT22;5504;47.312;11.060;2022-08-19T08:09:40;19.10;99.20
10903;DHT22;5504;47.312;11.060;2022-08-19T08:12:10;19.30;98.40
10903;DHT22;5504;47.312;11.060;2022-08-19T08:14:48;19.40;98.10
10903;DHT22;5504;47.312;11.060;2022-08-19T08:17:16;19.50;97.10
10903;DHT22;5504;47.312;11.060;2022-08-19T08:19:44;19.90;97.40
10903;DHT22;5504;47.312;11.060;2022-08-19T08:22:11;20.40;97.40
10903;DHT22;5504;47.312;11.060;2022-08-19T08:25:11;20.80;96.10
10903;DHT22;5504;47.312;11.060;2022-08-19T08:27:39;21.10;95.50
10903;DHT22;5504;47.312;11.060;2022-08-19T08:30:10;21.70;95.30
10903;DHT22;5504;47.312;11.060;2022-08-19T08:32:37;22.00;94.30
10903;DHT22;5504;47.312;11.060;2022-08-19T08:35:10;22.10;93.40
10903;DHT22;5504;47.312;11.060;2022-08-19T08:37:37;22.10;93.00
10903;DHT22;5504;47.312;11.060;2022-08-19T08:46:08;22.00;93.20
10903;DHT22;5504;47.312;11.060;2022-08-19T08:48:49;21.90;93.10
10903;DHT22;5504;47.312;11.060;2022-08-19T08:51:26;22.10;93.00
10903;DHT22;5504;47.312;11.060;2022-08-19T08:53:54;22.40;92.80
10903;DHT22;5504;47.312;11.060;2022-08-19T08:56:20;22.50;92.10
10903;DHT22;5504;47.312;11.060;2022-08-19T09:01:21;22.20;92.60
10903;DHT22;5504;47.312;11.060;2022-08-19T09:03:47;22.10;92.70
10903;DHT22;5504;47.312;11.060;2022-08-19T09:06:25;22.30;92.40
10903;DHT22;5504;47.312;11.060;2022-08-19T09:12:13;23.30;93.30
10903;DHT22;5504;47.312;11.060;2022-08-19T09:14:55;24.20;92.10
10903;DHT22;5504;47.312;11.060;2022-08-19T09:17:25;25.50;91.60
10903;DHT22;5504;47.312;11.060;2022-08-19T09:22:33;26.10;85.10
10903;DHT22;5504;47.312;11.060;2022-08-19T09:24:59;26.20;82.00
10903;DHT22;5504;47.312;11.060;2022-08-19T09:27:26;25.60;83.70
10903;DHT22;5504;47.312;11.060;2022-08-19T09:29:53;24.80;85.70
10903;DHT22;5504;47.312;11.060;2022-08-19T09:32:20;24.50;88.00
10903;DHT22;5504;47.312;11.060;2022-08-19T09:34:46;24.70;90.20
10903;DHT22;5504;47.312;11.060;2022-08-19T09:37:12;25.40;90.20
10903;DHT22;5504;47.312;11.060;2022-08-19T09:39:38;25.50;86.00
10903;DHT22;5504;47.312;11.060;2022-08-19T09:42:06;25.30;84.20
10903;DHT22;5504;47.312;11.060;2022-08-19T09:44:40;25.00;83.80
10903;DHT22;5504;47.312;11.060;2022-08-19T09:47:06;24.60;85.40
10903;DHT22;5504;47.312;11.060;2022-08-19T09:49:32;24.40;87.10
10903;DHT22;5504;47.312;11.060;2022-08-19T09:51:59;24.40;87.30
10903;DHT22;5504;47.312;11.060;2022-08-19T09:54:25;24.30;88.80
10903;DHT22;5504;47.312;11.060;2022-08-19T09:56:55;24.30;90.00
10903;DHT22;5504;47.312;11.060;2022-08-19T09:59:21;24.40;89.70
10903;DHT22;5504;47.312;11.060;2022-08-19T10:01:47;24.40;85.60
10903;DHT22;5504;47.312;11.060;2022-08-19T10:04:13;24.20;86.70
10903;DHT22;5504;47.312;11.060;2022-08-19T10:06:39;24.10;87.20
10903;DHT22;5504;47.312;11.060;2022-08-19T10:09:09;23.80;87.70
10903;DHT22;5504;47.312;11.060;2022-08-19T10:11:36;23.50;89.30
10903;DHT22;5504;47.312;11.060;2022-08-19T10:14:04;23.80;88.40
10903;DHT22;5504;47.312;11.060;2022-08-19T10:16:36;23.90;88.40
10903;DHT22;5504;47.312;11.060;2022-08-19T10:19:02;23.90;88.00
10903;DHT22;5504;47.312;11.060;2022-08-19T10:21:32;24.30;87.50
10903;DHT22;5504;47.312;11.060;2022-08-19T10:24:00;24.80;87.30
10903;DHT22;5504;47.312;11.060;2022-08-19T10:26:32;24.70;83.40
10903;DHT22;5504;47.312;11.060;2022-08-19T10:28:59;24.30;82.60
10903;DHT22;5504;47.312;11.060;2022-08-19T10:31:28;24.00;85.20
10903;DHT22;5504;47.312;11.060;2022-08-19T10:33:54;24.00;87.50
10903;DHT22;5504;47.312;11.060;2022-08-19T10:36:25;24.40;87.00
10903;DHT22;5504;47.312;11.060;2022-08-19T10:38:53;24.60;84.60
10903;DHT22;5504;47.312;11.060;2022-08-19T10:41:27;24.50;85.30
10903;DHT22;5504;47.312;11.060;2022-08-19T10:43:56;24.50;86.00
10903;DHT22;5504;47.312;11.060;2022-08-19T10:46:25;24.30;87.50
10903;DHT22;5504;47.312;11.060;2022-08-19T10:48:51;24.00;84.40
10903;DHT22;5504;47.312;11.060;2022-08-19T10:51:17;23.80;85.30
10903;DHT22;5504;47.312;11.060;2022-08-19T10:54:03;23.70;87.10
10903;DHT22;5504;47.312;11.060;2022-08-19T10:56:29;23.70;87.40
10903;DHT22;5504;47.312;11.060;2022-08-19T10:59:15;23.60;87.60
10903;DHT22;5504;47.312;11.060;2022-08-19T11:01:43;23.40;85.60
10903;DHT22;5504;47.312;11.060;2022-08-19T11:04:09;23.40;87.00
10903;DHT22;5504;47.312;11.060;2022-08-19T11:06:40;23.70;86.80
10903;DHT22;5504;47.312;11.060;2022-08-19T11:09:07;23.90;86.00
10903;DHT22;5504;47.312;11.060;2022-08-19T11:11:34;24.30;88.10
10903;DHT22;5504;47.312;11.060;2022-08-19T11:14:05;24.70;83.40
10903;DHT22;5504;47.312;11.060;2022-08-19T11:16:30;25.30;82.10
10903;DHT22;5504;47.312;11.060;2022-08-19T11:18:58;24.90;80.80
10903;DHT22;5504;47.312;11.060;2022-08-19T11:21:29;24.40;81.60
10903;DHT22;5504;47.312;11.060;2022-08-19T11:24:00;24.60;84.30
10903;DHT22;5504;47.312;11.060;2022-08-19T11:26:26;24.60;83.20
10903;DHT22;5504;47.312;11.060;2022-08-19T11:28:53;24.60;80.80
10903;DHT22;5504;47.312;11.060;2022-08-19T11:31:24;24.30;80.00
10903;DHT22;5504;47.312;11.060;2022-08-19T11:33:51;24.10;81.50
10903;DHT22;5504;47.312;11.060;2022-08-19T11:36:20;23.90;81.30
10903;DHT22;5504;47.312;11.060;2022-08-19T11:38:47;23.80;83.00
10903;DHT22;5504;47.312;11.060;2022-08-19T11:41:15;23.80;81.90
10903;DHT22;5504;47.312;11.060;2022-08-19T11:43:41;24.00;82.50
10903;DHT22;5504;47.312;11.060;2022-08-19T11:46:09;24.70;84.00
10903;DHT22;5504;47.312;11.060;2022-08-19T11:48:36;25.50;81.10
10903;DHT22;5504;47.312;11.060;2022-08-19T11:51:08;26.00;78.80
10903;DHT22;5504;47.312;11.060;2022-08-19T11:53:36;26.50;77.60
10903;DHT22;5504;47.312;11.060;2022-08-19T11:56:03;26.90;77.80
10903;DHT22;5504;47.312;11.060;2022-08-19T11:58:29;26.70;73.50
10903;DHT22;5504;47.312;11.060;2022-08-19T12:00:55;26.40;74.60
10903;DHT22;5504;47.312;11.060;2022-08-19T12:03:22;26.00;76.50
10903;DHT22;5504;47.312;11.060;2022-08-19T12:05:48;25.80;76.70
10903;DHT22;5504;47.312;11.060;2022-08-19T12:08:15;25.50;77.60
10903;DHT22;5504;47.312;11.060;2022-08-19T12:10:42;25.30;79.80
10903;DHT22;5504;47.312;11.060;2022-08-19T12:13:09;25.60;81.90
10903;DHT22;5504;47.312;11.060;2022-08-19T12:15:37;26.10;80.60
10903;DHT22;5504;47.312;11.060;2022-08-19T12:18:04;26.30;75.40
10903;DHT22;5504;47.312;11.060;2022-08-19T12:20:30;25.80;74.30
10903;DHT22;5504;47.312;11.060;2022-08-19T12:22:55;26.10;77.40
10903;DHT22;5504;47.312;11.060;2022-08-19T12:25:21;26.00;76.70
10903;DHT22;5504;47.312;11.060;2022-08-19T12:27:47;26.00;77.40
10903;DHT22;5504;47.312;11.060;2022-08-19T12:30:13;25.90;77.60
10903;DHT22;5504;47.312;11.060;2022-08-19T12:32:39;25.80;78.40
10903;DHT22;5504;47.312;11.060;2022-08-19T12:35:06;26.20;81.90
10903;DHT22;5504;47.312;11.060;2022-08-19T12:37:34;26.80;78.10
10903;DHT22;5504;47.312;11.060;2022-08-19T12:40:00;27.10;71.30
10903;DHT22;5504;47.312;11.060;2022-08-19T12:42:26;27.40;71.20
10903;DHT22;5504;47.312;11.060;2022-08-19T12:44:52;27.40;69.10
10903;DHT22;5504;47.312;11.060;2022-08-19T12:47:18;27.40;72.60
10903;DHT22;5504;47.312;11.060;2022-08-19T12:49:44;27.50;67.10
10903;DHT22;5504;47.312;11.060;2022-08-19T12:52:12;27.30;65.70
10903;DHT22;5504;47.312;11.060;2022-08-19T12:54:41;27.40;68.00
10903;DHT22;5504;47.312;11.060;2022-08-19T12:57:09;27.40;64.50
10903;DHT22;5504;47.312;11.060;2022-08-19T12:59:36;27.30;69.00
10903;DHT22;5504;47.312;11.060;2022-08-19T13:02:06;27.10;71.60
10903;DHT22;5504;47.312;11.060;2022-08-19T13:04:33;27.10;73.90
10903;DHT22;5504;47.312;11.060;2022-08-19T13:07:06;27.10;71.40
10903;DHT22;5504;47.312;11.060;2022-08-19T13:09:32;27.30;72.10
10903;DHT22;5504;47.312;11.060;2022-08-19T13:11:57;26.90;71.00
10903;DHT22;5504;47.312;11.060;2022-08-19T13:14:23;27.40;71.90
10903;DHT22;5504;47.312;11.060;2022-08-19T13:16:49;27.60;66.30
10903;DHT22;5504;47.312;11.060;2022-08-19T13:19:14;27.70;69.90
10903;DHT22;5504;47.312;11.060;2022-08-19T13:21:40;27.20;70.40
10903;DHT22;5504;47.312;11.060;2022-08-19T13:24:06;27.30;71.00
10903;DHT22;5504;47.312;11.060;2022-08-19T13:26:32;27.20;71.90
10903;DHT22;5504;47.312;11.060;2022-08-19T13:28:57;27.50;70.70
10903;DHT22;5504;47.312;11.060;2022-08-19T13:31:42;27.60;68.90
10903;DHT22;5504;47.312;11.060;2022-08-19T13:34:35;27.60;68.40
10903;DHT22;5504;47.312;11.060;2022-08-19T13:37:03;27.40;62.20
10903;DHT22;5504;47.312;11.060;2022-08-19T13:39:33;27.10;62.80
10903;DHT22;5504;47.312;11.060;2022-08-19T13:41:59;26.90;62.30
10903;DHT22;5504;47.312;11.060;2022-08-19T13:44:27;27.30;65.30
10903;DHT22;5504;47.312;11.060;2022-08-19T13:46:59;27.70;64.70
10903;DHT22;5504;47.312;11.060;2022-08-19T13:49:27;27.60;60.40
10903;DHT22;5504;47.312;11.060;2022-08-19T13:51:57;27.60;62.60
10903;DHT22;5504;47.312;11.060;2022-08-19T13:54:22;27.50;62.30
10903;DHT22;5504;47.312;11.060;2022-08-19T13:56:48;28.00;64.70
10903;DHT22;5504;47.312;11.060;2022-08-19T13:59:14;28.10;61.90
10903;DHT22;5504;47.312;11.060;2022-08-19T14:01:41;26.30;62.10
10903;DHT22;5504;47.312;11.060;2022-08-19T14:04:07;26.00;65.20
10903;DHT22;5504;47.312;11.060;2022-08-19T14:06:33;26.10;66.20
10903;DHT22;5504;47.312;11.060;2022-08-19T14:08:59;25.00;65.70
10903;DHT22;5504;47.312;11.060;2022-08-19T14:11:27;24.80;65.20
10903;DHT22;5504;47.312;11.060;2022-08-19T14:13:53;25.30;66.00
10903;DHT22;5504;47.312;11.060;2022-08-19T14:16:19;25.50;65.60
10903;DHT22;5504;47.312;11.060;2022-08-19T14:18:45;25.90;64.90
10903;DHT22;5504;47.312;11.060;2022-08-19T14:21:23;26.60;67.00
10903;DHT22;5504;47.312;11.060;2022-08-19T14:23:50;27.10;66.50
10903;DHT22;5504;47.312;11.060;2022-08-19T14:26:17;26.80;65.60
10903;DHT22;5504;47.312;11.060;2022-08-19T14:28:44;25.90;65.60
10903;DHT22;5504;47.312;11.060;2022-08-19T14:31:11;25.70;70.10
10903;DHT22;5504;47.312;11.060;2022-08-19T14:33:38;25.90;69.90
10903;DHT22;5504;47.312;11.060;2022-08-19T14:36:06;26.60;67.10
10903;DHT22;5504;47.312;11.060;2022-08-19T14:38:32;26.90;64.40
10903;DHT22;5504;47.312;11.060;2022-08-19T14:41:18;27.00;63.90
10903;DHT22;5504;47.312;11.060;2022-08-19T14:43:49;27.20;65.30
10903;DHT22;5504;47.312;11.060;2022-08-19T14:46:18;27.10;63.20
10903;DHT22;5504;47.312;11.060;2022-08-19T14:48:46;26.90;64.00
10903;DHT22;5504;47.312;11.060;2022-08-19T14:51:12;26.70;64.30
10903;DHT22;5504;47.312;11.060;2022-08-19T14:53:39;26.50;65.80
10903;DHT22;5504;47.312;11.060;2022-08-19T14:56:10;26.50;66.30
10903;DHT22;5504;47.312;11.060;2022-08-19T14:58:37;26.50;64.10
10903;DHT22;5504;47.312;11.060;2022-08-19T15:01:03;26.70;65.40
10903;DHT22;5504;47.312;11.060;2022-08-19T15:03:30;26.80;63.20
10903;DHT22;5504;47.312;11.060;2022-08-19T15:05:57;26.90;63.90
10903;DHT22;5504;47.312;11.060;2022-08-19T15:08:23;26.90;63.20
10903;DHT22;5504;47.312;11.060;2022-08-19T15:10:51;27.00;63.60
10903;DHT22;5504;47.312;11.060;2022-08-19T15:13:17;26.80;64.10
10903;DHT22;5504;47.312;11.060;2022-08-19T15:15:43;26.50;65.20
10903;DHT22;5504;47.312;11.060;2022-08-19T15:18:09;26.60;66.20
10903;DHT22;5504;47.312;11.060;2022-08-19T15:20:36;26.70;67.90
10903;DHT22;5504;47.312;11.060;2022-08-19T15:23:03;26.70;66.30
10903;DHT22;5504;47.312;11.060;2022-08-19T15:25:29;26.60;67.10
10903;DHT22;5504;47.312;11.060;2022-08-19T15:27:54;26.30;66.60
10903;DHT22;5504;47.312;11.060;2022-08-19T15:30:26;26.30;67.80
10903;DHT22;5504;47.312;11.060;2022-08-19T15:32:52;26.00;68.50
10903;DHT22;5504;47.312;11.060;2022-08-19T15:35:19;25.90;67.90
10903;DHT22;5504;47.312;11.060;2022-08-19T15:37:48;25.50;68.30
10903;DHT22;5504;47.312;11.060;2022-08-19T15:40:14;24.80;69.00
10903;DHT22;5504;47.312;11.060;2022-08-19T15:42:40;24.80;69.80
10903;DHT22;5504;47.312;11.060;2022-08-19T15:45:07;23.40;75.90
10903;DHT22;5504;47.312;11.060;2022-08-19T15:47:35;23.40;76.00
10903;DHT22;5504;47.312;11.060;2022-08-19T15:50:05;23.60;75.50
10903;DHT22;5504;47.312;11.060;2022-08-19T15:52:31;23.80;78.30